Time;durP1;ratioP1;P1;durP2;ratioP2;P2;SDS_P1;SDS_P2;PMS_P1;PMS_P2;Temp;Humidity;BMP_temperature;BMP_pressure;BME280_temperature;BME280_humidity;BME280_pressure;Samples;Min_cycle;Max_cycle;Signal;HPM_P1;HPM_P2
2021/07/13 00:00:54;;;;;;;45.95;41.28;;;;;;;;;;5012101;28;20362;-72
2021/07/13 00:03:21;;;;;;;48.22;43.20;;;;;;;;;;5034933;28;20452;-72
2021/07/13 00:05:48;;;;;;;50.80;45.30;;;;;;;;;;5031130;28;20427;-72
2021/07/13 00:08:15;;;;;;;48.22;43.55;;;;;;;;;;5036330;28;20041;-72
2021/07/13 00:10:43;;;;;;;51.53;45.90;;;;;;;;;;5030984;28;21271;-72
2021/07/13 00:13:09;;;;;;;52.20;46.60;;;;;;;;;;5035761;28;20067;-72
2021/07/13 00:15:37;;;;;;;58.88;50.20;;;;;;;;;;5032704;28;20039;-72
2021/07/13 00:18:04;;;;;;;55.35;49.30;;;;;;;;;;5040740;28;20500;-72
2021/07/13 00:20:30;;;;;;;64.07;54.13;;;;;;;;;;5033340;28;20037;-72
2021/07/13 00:22:57;;;;;;;60.65;54.15;;;;;;;;;;5031593;28;20075;-72
2021/07/13 00:25:24;;;;;;;64.55;56.75;;;;;;;;;;5021924;28;20140;-72
2021/07/13 00:27:50;;;;;;;66.35;56.85;;;;;;;;;;5033415;28;20477;-72
2021/07/13 00:30:17;;;;;;;74.70;60.83;;;;;;;;;;5043275;28;20033;-72
2021/07/13 00:32:43;;;;;;;72.45;62.85;;;;;;;;;;5026975;28;20469;-72
2021/07/13 00:35:09;;;;;;;78.68;61.75;;;;;;;;;;5037275;28;20557;-72
2021/07/13 00:37:36;;;;;;;73.70;63.35;;;;;;;;;;5028472;28;20405;-72
2021/07/13 00:40:02;;;;;;;69.57;62.05;;;;;;;;;;5035122;28;20067;-72
2021/07/13 00:42:28;;;;;;;82.68;67.78;;;;;;;;;;5011829;28;20037;-72
2021/07/13 00:44:55;;;;;;;85.15;68.72;;;;;;;;;;5035270;28;20033;-72
2021/07/13 00:47:22;;;;;;;80.00;66.47;;;;;;;;;;5024870;28;20077;-72
2021/07/13 00:49:49;;;;;;;84.20;67.68;;;;;;;;;;5040455;28;20094;-72
2021/07/13 00:52:15;;;;;;;77.15;68.35;;;;;;;;;;5034038;28;20045;-72
2021/07/13 00:54:42;;;;;;;81.75;71.05;;;;;;;;;;5032920;28;20163;-72
2021/07/13 00:57:11;;;;;;;80.15;66.90;;;;;;;;;;5030868;28;20112;-72
2021/07/13 00:59:38;;;;;;;86.15;72.18;;;;;;;;;;5036776;28;20141;-72
2021/07/13 01:02:06;;;;;;;81.28;69.18;;;;;;;;;;5036589;28;20041;-72
2021/07/13 01:04:40;;;;;;;92.63;73.30;;;;;;;;;;5032171;28;20114;-72
2021/07/13 01:07:09;;;;;;;90.97;71.72;;;;;;;;;;5039651;28;20481;-72
2021/07/13 01:09:44;;;;;;;88.60;72.18;;;;;;;;;;5028269;28;20052;-72
2021/07/13 01:12:14;;;;;;;96.45;75.00;;;;;;;;;;5036635;28;20168;-72
2021/07/13 01:14:43;;;;;;;88.15;73.05;;;;;;;;;;5028488;28;20065;-72
2021/07/13 01:17:23;;;;;;;91.25;73.25;;;;;;;;;;5034488;28;20444;-72
2021/07/13 01:19:52;;;;;;;88.97;72.18;;;;;;;;;;5033515;28;20086;-72
2021/07/13 01:22:23;;;;;;;98.95;76.00;;;;;;;;;;5034101;28;20089;-72
2021/07/13 01:25:11;;;;;;;93.38;71.18;;;;;;;;;;5027823;28;20468;-72
2021/07/13 01:27:45;;;;;;;84.07;69.13;;;;;;;;;;5036940;28;20416;-72
2021/07/13 01:30:14;;;;;;;95.10;74.20;;;;;;;;;;5032857;28;20523;-72
2021/07/13 01:32:42;;;;;;;94.10;72.60;;;;;;;;;;5023866;28;20048;-72
2021/07/13 01:35:13;;;;;;;106.93;76.45;;;;;;;;;;5028934;28;20040;-72
2021/07/13 01:37:39;;;;;;;99.22;73.22;;;;;;;;;;5035206;28;20063;-72
2021/07/13 01:40:06;;;;;;;94.88;70.88;;;;;;;;;;5029379;28;20439;-72
2021/07/13 01:42:33;;;;;;;89.07;71.22;;;;;;;;;;5037106;28;20041;-72
2021/07/13 01:45:00;;;;;;;100.60;75.07;;;;;;;;;;5031972;28;20489;-72
2021/07/13 01:47:28;;;;;;;92.22;72.28;;;;;;;;;;5035564;28;20064;-72
2021/07/13 01:49:55;;;;;;;91.97;70.97;;;;;;;;;;5029317;28;20401;-72
2021/07/13 01:52:21;;;;;;;99.80;70.93;;;;;;;;;;5019301;28;20046;-72
2021/07/13 01:54:48;;;;;;;101.93;71.82;;;;;;;;;;5031498;28;20080;-72
2021/07/13 01:57:16;;;;;;;90.57;72.70;;;;;;;;;;5035419;28;20128;-72
2021/07/13 01:59:44;;;;;;;88.55;68.95;;;;;;;;;;5027758;28;20037;-72
2021/07/13 02:02:11;;;;;;;100.93;73.35;;;;;;;;;;5035950;28;20135;-73
2021/07/13 02:04:38;;;;;;;91.82;70.35;;;;;;;;;;5034342;28;20045;-72
2021/07/13 02:07:07;;;;;;;93.45;70.93;;;;;;;;;;5014196;28;20113;-72
2021/07/13 02:09:33;;;;;;;94.20;72.20;;;;;;;;;;5035967;28;20051;-72
2021/07/13 02:12:00;;;;;;;89.25;67.70;;;;;;;;;;5032356;28;20075;-72
2021/07/13 02:14:26;;;;;;;91.53;70.47;;;;;;;;;;5045048;28;20044;-72
2021/07/13 02:16:53;;;;;;;91.25;69.50;;;;;;;;;;5028840;28;20091;-72
2021/07/13 02:19:21;;;;;;;86.15;67.30;;;;;;;;;;5033709;28;20569;-72
2021/07/13 02:21:48;;;;;;;90.97;66.40;;;;;;;;;;5030750;28;20382;-72
2021/07/13 02:24:15;;;;;;;90.45;66.07;;;;;;;;;;5032582;28;20033;-72
2021/07/13 02:26:48;;;;;;;83.90;66.20;;;;;;;;;;5026552;28;20095;-72
2021/07/13 02:29:16;;;;;;;91.07;66.20;;;;;;;;;;5039823;28;20049;-72
2021/07/13 02:31:55;;;;;;;95.45;64.22;;;;;;;;;;5033610;28;20049;-72
2021/07/13 02:34:21;;;;;;;90.03;66.93;;;;;;;;;;5039332;28;20061;-72
2021/07/13 02:36:49;;;;;;;96.43;68.80;;;;;;;;;;5032922;28;20405;-72
2021/07/13 02:39:16;;;;;;;89.30;67.63;;;;;;;;;;5036960;28;20037;-72
2021/07/13 02:41:43;;;;;;;96.03;68.47;;;;;;;;;;5028998;28;20041;-72
2021/07/13 02:44:10;;;;;;;98.75;71.55;;;;;;;;;;5039146;28;20036;-72
2021/07/13 02:46:41;;;;;;;90.68;66.45;;;;;;;;;;5033174;28;20481;-73
2021/07/13 02:49:08;;;;;;;121.50;68.32;;;;;;;;;;5038390;28;20202;-72
2021/07/13 02:51:35;;;;;;;99.32;70.45;;;;;;;;;;5020648;28;20418;-72
2021/07/13 02:54:01;;;;;;;87.80;67.32;;;;;;;;;;5039436;28;20029;-72
2021/07/13 02:56:29;;;;;;;94.50;68.47;;;;;;;;;;5039563;28;20037;-72
2021/07/13 02:58:56;;;;;;;122.75;72.03;;;;;;;;;;5035370;28;20102;-72
2021/07/13 03:01:22;;;;;;;92.22;69.60;;;;;;;;;;5044130;28;20598;-72
2021/07/13 03:03:50;;;;;;;98.93;67.95;;;;;;;;;;5038751;28;20044;-72
2021/07/13 03:06:17;;;;;;;106.30;71.63;;;;;;;;;;5019035;28;20080;-72
2021/07/13 03:08:43;;;;;;;97.28;68.97;;;;;;;;;;5031223;28;20492;-73
2021/07/13 03:11:09;;;;;;;102.10;72.25;;;;;;;;;;5032588;28;20125;-72
2021/07/13 03:13:36;;;;;;;85.80;64.95;;;;;;;;;;5029526;28;20137;-72
2021/07/13 03:16:03;;;;;;;89.03;67.63;;;;;;;;;;5026438;28;20456;-72
2021/07/13 03:18:29;;;;;;;88.47;67.65;;;;;;;;;;5015678;28;20111;-72
2021/07/13 03:20:58;;;;;;;85.63;65.57;;;;;;;;;;5038852;28;20052;-72
2021/07/13 03:23:25;;;;;;;90.43;66.18;;;;;;;;;;5034352;28;20389;-73
2021/07/13 03:25:52;;;;;;;82.45;63.92;;;;;;;;;;5039503;28;20220;-72
2021/07/13 03:28:19;;;;;;;83.32;64.57;;;;;;;;;;5033123;28;20064;-73
2021/07/13 03:30:46;;;;;;;76.80;63.42;;;;;;;;;;5041092;28;20633;-72
2021/07/13 03:33:13;;;;;;;86.40;64.95;;;;;;;;;;5032343;28;20037;-72
2021/07/13 03:35:40;;;;;;;75.50;60.90;;;;;;;;;;5036831;28;20107;-72
2021/07/13 03:38:06;;;;;;;82.75;63.92;;;;;;;;;;5037208;28;20049;-72
2021/07/13 03:40:32;;;;;;;86.97;65.88;;;;;;;;;;5035217;28;20471;-72
2021/07/13 03:42:59;;;;;;;75.82;63.35;;;;;;;;;;5037073;28;20082;-72
2021/07/13 03:45:28;;;;;;;75.45;61.95;;;;;;;;;;5013409;28;20041;-73
2021/07/13 03:47:56;;;;;;;77.47;60.92;;;;;;;;;;5037046;28;20042;-72
2021/07/13 03:50:24;;;;;;;74.78;59.85;;;;;;;;;;5036883;28;20121;-72
2021/07/13 03:52:50;;;;;;;71.13;57.58;;;;;;;;;;5041550;28;20044;-73
2021/07/13 03:55:16;;;;;;;73.28;58.53;;;;;;;;;;5036213;28;20029;-73
2021/07/13 03:57:42;;;;;;;70.53;58.90;;;;;;;;;;5036796;28;20037;-73
2021/07/13 04:00:10;;;;;;;77.93;61.67;;;;;;;;;;5032125;28;20041;-73
2021/07/13 04:02:36;;;;;;;70.68;58.95;;;;;;;;;;5040886;28;20532;-73
2021/07/13 04:05:04;;;;;;;77.68;59.90;;;;;;;;;;5035901;28;20497;-73
2021/07/13 04:07:30;;;;;;;70.72;59.13;;;;;;;;;;5034554;28;20084;-73
2021/07/13 04:09:56;;;;;;;69.03;57.53;;;;;;;;;;5035822;28;20076;-73
2021/07/13 04:12:22;;;;;;;70.10;59.28;;;;;;;;;;5035158;28;20029;-73
2021/07/13 04:14:48;;;;;;;67.00;57.30;;;;;;;;;;5036822;28;20069;-73
2021/07/13 04:17:15;;;;;;;64.72;56.30;;;;;;;;;;5024226;28;20049;-73
2021/07/13 04:19:42;;;;;;;64.03;57.08;;;;;;;;;;5021597;28;20053;-73
2021/07/13 04:22:08;;;;;;;70.05;57.80;;;;;;;;;;5034905;28;20116;-73
2021/07/13 04:24:34;;;;;;;72.75;59.38;;;;;;;;;;5035104;28;20041;-73
2021/07/13 04:27:00;;;;;;;64.53;54.53;;;;;;;;;;5030071;28;20041;-73
2021/07/13 04:29:27;;;;;;;65.63;55.55;;;;;;;;;;5035657;28;20061;-73
2021/07/13 04:31:53;;;;;;;63.25;55.45;;;;;;;;;;5029738;28;20040;-72
2021/07/13 04:34:19;;;;;;;60.95;54.42;;;;;;;;;;5042313;28;20116;-72
2021/07/13 04:36:46;;;;;;;60.22;53.72;;;;;;;;;;5031456;28;20041;-72
2021/07/13 04:39:12;;;;;;;63.88;54.95;;;;;;;;;;5036053;28;20029;-72
2021/07/13 04:41:38;;;;;;;61.53;54.88;;;;;;;;;;5030613;28;20033;-73
2021/07/13 04:44:05;;;;;;;59.60;53.10;;;;;;;;;;5039707;28;20044;-73
2021/07/13 04:46:31;;;;;;;59.08;52.40;;;;;;;;;;5036461;28;20036;-73
2021/07/13 04:48:57;;;;;;;61.05;50.92;;;;;;;;;;5034994;28;20393;-73
2021/07/13 04:51:24;;;;;;;61.70;54.20;;;;;;;;;;5028414;28;20037;-73
2021/07/13 04:53:50;;;;;;;61.03;51.80;;;;;;;;;;5034521;28;20409;-72
2021/07/13 04:56:16;;;;;;;58.40;51.20;;;;;;;;;;5034364;28;20044;-72
2021/07/13 04:58:43;;;;;;;59.53;52.25;;;;;;;;;;5030824;28;20095;-72
2021/07/13 05:01:09;;;;;;;56.30;50.25;;;;;;;;;;5041037;28;20112;-72
2021/07/13 05:03:35;;;;;;;57.03;50.78;;;;;;;;;;5032261;28;20025;-73
2021/07/13 05:06:02;;;;;;;59.72;51.00;;;;;;;;;;5036803;28;20045;-73
2021/07/13 05:08:28;;;;;;;61.05;51.13;;;;;;;;;;5012990;28;20381;-73
2021/07/13 05:10:54;;;;;;;56.65;47.67;;;;;;;;;;5036342;28;20116;-73
2021/07/13 05:13:20;;;;;;;55.85;49.92;;;;;;;;;;5031886;28;20033;-73
2021/07/13 05:15:46;;;;;;;52.92;46.90;;;;;;;;;;5036350;28;20034;-73
2021/07/13 05:18:13;;;;;;;58.92;50.45;;;;;;;;;;5028944;28;20053;-73
2021/07/13 05:20:45;;;;;;;56.10;49.88;;;;;;;;;;5041579;28;20386;-73
2021/07/13 05:23:12;;;;;;;58.53;51.15;;;;;;;;;;5010813;28;20064;-73
2021/07/13 05:25:38;;;;;;;56.80;49.80;;;;;;;;;;5033839;28;20591;-73
2021/07/13 05:28:05;;;;;;;59.63;50.33;;;;;;;;;;5025173;28;20033;-73
2021/07/13 05:30:31;;;;;;;56.40;49.50;;;;;;;;;;5027950;28;20396;-73
2021/07/13 05:32:58;;;;;;;54.55;48.55;;;;;;;;;;5029290;28;20466;-73
2021/07/13 05:35:24;;;;;;;57.63;50.83;;;;;;;;;;5032928;28;20063;-73
2021/07/13 05:37:50;;;;;;;56.30;49.33;;;;;;;;;;5033279;28;20041;-72
2021/07/13 05:40:17;;;;;;;55.95;49.80;;;;;;;;;;5031851;28;20133;-73
2021/07/13 05:42:43;;;;;;;58.70;50.58;;;;;;;;;;5032544;28;20524;-73
2021/07/13 05:45:10;;;;;;;58.88;51.30;;;;;;;;;;5014497;28;20493;-73
2021/07/13 05:47:36;;;;;;;57.50;51.00;;;;;;;;;;5018798;28;20211;-73
2021/07/13 05:50:07;;;;;;;58.08;49.15;;;;;;;;;;5013561;28;20405;-73
2021/07/13 05:52:34;;;;;;;61.13;51.40;;;;;;;;;;5035128;28;20041;-73
2021/07/13 05:55:00;;;;;;;56.35;48.67;;;;;;;;;;5023613;28;20482;-73
2021/07/13 05:57:26;;;;;;;61.80;54.05;;;;;;;;;;5034137;28;20357;-73
2021/07/13 05:59:53;;;;;;;67.88;55.47;;;;;;;;;;5031934;28;20095;-73
2021/07/13 06:02:19;;;;;;;60.05;51.55;;;;;;;;;;5033231;28;20406;-73
2021/07/13 06:04:45;;;;;;;58.50;51.08;;;;;;;;;;5029511;28;20421;-73
2021/07/13 06:07:12;;;;;;;56.95;50.85;;;;;;;;;;5035493;28;20045;-73
2021/07/13 06:09:38;;;;;;;61.47;50.60;;;;;;;;;;5027835;28;20044;-73
2021/07/13 06:12:04;;;;;;;57.65;50.53;;;;;;;;;;5039221;28;20401;-73
2021/07/13 06:14:31;;;;;;;58.50;50.25;;;;;;;;;;5032921;28;20041;-73
2021/07/13 06:16:57;;;;;;;56.80;49.60;;;;;;;;;;5038962;28;20524;-73
2021/07/13 06:19:23;;;;;;;55.45;48.17;;;;;;;;;;5024489;28;20477;-73
2021/07/13 06:21:49;;;;;;;53.35;47.55;;;;;;;;;;5033748;28;20235;-73
2021/07/13 06:24:35;;;;;;;56.03;47.70;;;;;;;;;;5026603;28;20037;-73
2021/07/13 06:27:02;;;;;;;51.15;45.58;;;;;;;;;;5035922;28;20049;-73
2021/07/13 06:29:28;;;;;;;52.95;47.45;;;;;;;;;;5040090;28;20037;-73
2021/07/13 06:31:54;;;;;;;52.20;45.55;;;;;;;;;;5021837;28;20045;-73
2021/07/13 06:34:20;;;;;;;51.30;45.63;;;;;;;;;;5039430;28;20413;-73
2021/07/13 06:36:47;;;;;;;46.88;41.75;;;;;;;;;;5030116;28;20044;-73
2021/07/13 06:39:14;;;;;;;47.58;42.45;;;;;;;;;;5039794;28;20106;-73
2021/07/13 06:41:40;;;;;;;47.20;42.17;;;;;;;;;;5036172;28;20116;-73
2021/07/13 06:44:06;;;;;;;46.15;41.15;;;;;;;;;;5027551;28;20052;-73
2021/07/13 06:46:34;;;;;;;43.95;39.47;;;;;;;;;;5031926;28;20033;-73
2021/07/13 06:49:02;;;;;;;43.97;39.33;;;;;;;;;;5040351;28;20522;-73
2021/07/13 06:51:29;;;;;;;43.58;38.70;;;;;;;;;;5030933;28;20036;-73
2021/07/13 06:53:55;;;;;;;43.13;38.50;;;;;;;;;;5041813;28;20033;-73
2021/07/13 06:56:21;;;;;;;44.05;39.45;;;;;;;;;;5028678;28;20112;-74
2021/07/13 06:58:47;;;;;;;43.28;38.63;;;;;;;;;;5037948;28;20434;-73
2021/07/13 07:01:14;;;;;;;40.63;36.30;;;;;;;;;;5038595;28;20108;-73
2021/07/13 07:03:40;;;;;;;42.72;38.13;;;;;;;;;;5035244;28;20040;-73
2021/07/13 07:06:06;;;;;;;42.72;38.05;;;;;;;;;;5042104;28;20072;-73
2021/07/13 07:08:33;;;;;;;42.58;37.65;;;;;;;;;;5038128;28;20071;-74
2021/07/13 07:10:59;;;;;;;41.03;36.08;;;;;;;;;;5045878;28;20507;-73
2021/07/13 07:13:25;;;;;;;42.33;37.42;;;;;;;;;;5030244;28;20383;-73
2021/07/13 07:15:52;;;;;;;41.25;34.88;;;;;;;;;;5037386;28;20045;-73
2021/07/13 07:18:18;;;;;;;37.78;33.67;;;;;;;;;;5035810;28;20045;-71
2021/07/13 07:20:44;;;;;;;37.60;33.58;;;;;;;;;;5039442;28;20215;-69
2021/07/13 07:23:10;;;;;;;35.88;32.03;;;;;;;;;;5035812;28;20049;-69
2021/07/13 07:25:36;;;;;;;33.88;30.30;;;;;;;;;;5039950;28;20334;-71
2021/07/13 07:28:03;;;;;;;33.90;30.42;;;;;;;;;;5033660;28;20053;-71
2021/07/13 07:30:29;;;;;;;34.33;30.70;;;;;;;;;;5037462;28;20052;-71
2021/07/13 07:32:58;;;;;;;34.90;31.30;;;;;;;;;;5019167;28;20053;-71
2021/07/13 07:35:25;;;;;;;33.30;29.90;;;;;;;;;;5039805;28;20454;-71
2021/07/13 07:37:51;;;;;;;32.65;29.35;;;;;;;;;;5033571;28;20502;-72
2021/07/13 07:40:18;;;;;;;32.78;29.33;;;;;;;;;;5040940;28;20060;-72
2021/07/13 07:42:46;;;;;;;30.30;27.23;;;;;;;;;;5027496;28;20049;-69
2021/07/13 07:45:12;;;;;;;30.88;27.88;;;;;;;;;;5038919;28;20520;-71
2021/07/13 07:47:38;;;;;;;31.98;28.75;;;;;;;;;;5037945;28;20439;-72
2021/07/13 07:50:05;;;;;;;31.13;28.02;;;;;;;;;;5035679;28;20725;-72
2021/07/13 07:52:31;;;;;;;29.33;26.45;;;;;;;;;;5038181;28;20044;-72
2021/07/13 07:54:58;;;;;;;28.88;26.15;;;;;;;;;;5023214;28;20043;-69
2021/07/13 07:57:24;;;;;;;29.83;26.73;;;;;;;;;;5035339;28;20037;-69
2021/07/13 07:59:50;;;;;;;29.85;26.77;;;;;;;;;;5039073;28;20435;-68
2021/07/13 08:02:16;;;;;;;30.65;27.45;;;;;;;;;;5040406;28;20120;-67
2021/07/13 08:04:43;;;;;;;28.25;25.48;;;;;;;;;;5036205;28;20354;-67
2021/07/13 08:07:09;;;;;;;28.60;25.92;;;;;;;;;;5044672;28;20075;-70
2021/07/13 08:09:36;;;;;;;28.75;25.95;;;;;;;;;;5030587;28;20045;-70
2021/07/13 08:12:02;;;;;;;29.27;26.35;;;;;;;;;;5039629;28;20052;-70
2021/07/13 08:14:28;;;;;;;30.75;27.65;;;;;;;;;;5031695;28;20076;-69
2021/07/13 08:16:55;;;;;;;30.48;27.55;;;;;;;;;;5047009;28;20520;-69
2021/07/13 08:19:21;;;;;;;32.60;29.13;;;;;;;;;;5022866;28;20106;-70
2021/07/13 08:21:47;;;;;;;31.02;27.83;;;;;;;;;;5040155;28;20041;-69
2021/07/13 08:24:14;;;;;;;31.00;27.70;;;;;;;;;;5044845;28;20041;-70
2021/07/13 08:26:40;;;;;;;28.67;25.95;;;;;;;;;;5030723;28;20124;-70
2021/07/13 08:29:06;;;;;;;31.38;28.27;;;;;;;;;;5041695;28;20033;-70
2021/07/13 08:31:33;;;;;;;27.92;25.33;;;;;;;;;;5035359;28;20064;-70
2021/07/13 08:33:59;;;;;;;27.42;24.92;;;;;;;;;;5036677;28;20041;-70
2021/07/13 08:36:25;;;;;;;26.70;24.15;;;;;;;;;;5039326;28;20453;-70
2021/07/13 08:38:51;;;;;;;28.17;25.48;;;;;;;;;;5040778;28;20041;-70
2021/07/13 08:41:20;;;;;;;26.10;23.40;;;;;;;;;;5028007;28;20140;-71
2021/07/13 08:43:46;;;;;;;26.80;24.30;;;;;;;;;;5046960;28;20045;-70
2021/07/13 08:46:12;;;;;;;26.33;24.02;;;;;;;;;;5020987;28;20071;-70
2021/07/13 08:48:40;;;;;;;26.92;24.52;;;;;;;;;;5038087;28;20049;-70
2021/07/13 08:51:06;;;;;;;26.67;24.20;;;;;;;;;;5028444;28;20096;-70
2021/07/13 08:53:32;;;;;;;25.35;23.13;;;;;;;;;;5042188;28;20042;-70
2021/07/13 08:55:59;;;;;;;25.17;22.92;;;;;;;;;;5033121;28;20464;-70
2021/07/13 08:58:25;;;;;;;26.38;23.95;;;;;;;;;;5019191;28;20057;-70
2021/07/13 09:00:52;;;;;;;28.05;25.33;;;;;;;;;;5028360;28;20037;-70
2021/07/13 09:03:19;;;;;;;26.25;23.85;;;;;;;;;;5042056;28;20509;-70
2021/07/13 09:05:50;;;;;;;28.67;25.85;;;;;;;;;;5041539;28;20064;-70
2021/07/13 09:08:23;;;;;;;28.10;25.55;;;;;;;;;;5029787;28;20049;-70
2021/07/13 09:11:05;;;;;;;28.55;25.85;;;;;;;;;;5044155;28;20072;-70
2021/07/13 09:13:34;;;;;;;27.83;25.05;;;;;;;;;;5040156;28;20033;-70
2021/07/13 09:16:01;;;;;;;26.75;24.10;;;;;;;;;;5042372;28;20029;-70
2021/07/13 09:18:28;;;;;;;28.50;25.83;;;;;;;;;;5039886;28;20071;-70
2021/07/13 09:21:04;;;;;;;27.70;25.00;;;;;;;;;;5046744;28;20450;-73
2021/07/13 09:23:31;;;;;;;27.63;25.13;;;;;;;;;;5031587;28;20033;-73
2021/07/13 09:25:57;;;;;;;28.55;25.67;;;;;;;;;;5042611;28;20104;-73
2021/07/13 09:28:24;;;;;;;26.20;23.75;;;;;;;;;;5033369;28;20159;-74
2021/07/13 09:30:52;;;;;;;28.05;25.35;;;;;;;;;;5045791;28;20037;-74
2021/07/13 09:33:26;;;;;;;30.08;27.23;;;;;;;;;;5031106;28;20057;-73
2021/07/13 09:35:58;;;;;;;26.77;24.15;;;;;;;;;;5037408;28;20112;-73
2021/07/13 09:38:25;;;;;;;28.10;25.23;;;;;;;;;;5035122;28;20072;-73
2021/07/13 09:40:59;;;;;;;29.05;26.05;;;;;;;;;;5043125;28;20041;-73
2021/07/13 09:43:26;;;;;;;30.67;27.73;;;;;;;;;;5029576;28;20099;-73
2021/07/13 09:45:52;;;;;;;30.50;27.40;;;;;;;;;;5037935;28;20500;-73
2021/07/13 09:48:18;;;;;;;30.77;27.75;;;;;;;;;;5036654;28;20065;-72
2021/07/13 09:50:45;;;;;;;30.88;27.67;;;;;;;;;;5038033;28;20068;-72
2021/07/13 09:53:15;;;;;;;32.05;28.77;;;;;;;;;;5028399;28;20049;-72
2021/07/13 09:55:41;;;;;;;31.73;28.42;;;;;;;;;;5033698;28;20029;-72
2021/07/13 09:58:12;;;;;;;31.58;28.48;;;;;;;;;;5013682;28;20052;-72
2021/07/13 10:00:39;;;;;;;31.38;28.08;;;;;;;;;;5035447;28;20106;-72
2021/07/13 10:03:05;;;;;;;29.55;26.55;;;;;;;;;;5036718;28;20505;-72
2021/07/13 10:05:31;;;;;;;28.58;25.67;;;;;;;;;;5031644;28;20045;-72
2021/07/13 10:07:57;;;;;;;31.10;28.02;;;;;;;;;;5033830;28;20042;-72
2021/07/13 10:10:24;;;;;;;30.90;27.77;;;;;;;;;;5030812;28;20482;-72
2021/07/13 10:12:54;;;;;;;29.48;26.52;;;;;;;;;;5019195;28;20064;-72
2021/07/13 10:15:20;;;;;;;30.90;27.92;;;;;;;;;;5026916;28;20052;-72
2021/07/13 10:17:46;;;;;;;29.17;26.50;;;;;;;;;;5038972;28;20037;-72
2021/07/13 10:20:13;;;;;;;29.58;26.88;;;;;;;;;;5030914;28;20029;-73
2021/07/13 10:22:42;;;;;;;33.13;29.92;;;;;;;;;;5039674;28;20541;-73
2021/07/13 10:25:08;;;;;;;32.35;29.23;;;;;;;;;;5027903;28;20409;-73
2021/07/13 10:27:42;;;;;;;31.05;28.17;;;;;;;;;;5038357;28;20037;-72
2021/07/13 10:30:11;;;;;;;32.30;29.33;;;;;;;;;;5030472;28;20036;-72
2021/07/13 10:32:41;;;;;;;30.30;27.50;;;;;;;;;;5033563;28;20033;-72
2021/07/13 10:35:22;;;;;;;32.05;29.05;;;;;;;;;;5033272;28;20026;-72
2021/07/13 10:37:49;;;;;;;32.80;29.77;;;;;;;;;;5017132;28;20429;-71
2021/07/13 10:40:16;;;;;;;30.88;28.00;;;;;;;;;;5030426;28;20034;-71
2021/07/13 10:42:42;;;;;;;31.08;28.08;;;;;;;;;;5034597;28;20029;-71
2021/07/13 10:45:14;;;;;;;31.98;28.88;;;;;;;;;;5034044;28;20217;-73
2021/07/13 10:48:00;;;;;;;35.53;32.15;;;;;;;;;;5034039;28;20499;-72
2021/07/13 10:50:32;;;;;;;34.53;31.38;;;;;;;;;;5029398;28;20038;-72
2021/07/13 10:52:58;;;;;;;34.08;30.90;;;;;;;;;;5034583;28;20118;-72
2021/07/13 10:55:31;;;;;;;32.72;29.55;;;;;;;;;;5013083;28;20056;-72
2021/07/13 10:58:13;;;;;;;32.40;29.52;;;;;;;;;;5039190;28;20034;-73
2021/07/13 11:00:58;;;;;;;30.65;27.83;;;;;;;;;;5033066;28;20086;-72
2021/07/13 11:03:32;;;;;;;31.95;29.08;;;;;;;;;;5038800;28;20041;-72
2021/07/13 11:06:01;;;;;;;32.33;29.42;;;;;;;;;;5013241;28;20049;-72
2021/07/13 11:08:49;;;;;;;35.63;32.38;;;;;;;;;;5038367;28;20053;-72
2021/07/13 11:11:16;;;;;;;30.48;27.77;;;;;;;;;;5016839;28;20091;-73
2021/07/13 11:13:46;;;;;;;31.77;28.88;;;;;;;;;;5042205;28;20037;-72
2021/07/13 11:16:13;;;;;;;32.55;29.65;;;;;;;;;;5031180;28;20063;-72
2021/07/13 11:18:40;;;;;;;34.65;31.45;;;;;;;;;;5038971;28;20040;-72
2021/07/13 11:21:16;;;;;;;32.15;29.05;;;;;;;;;;5037823;28;20478;-72
2021/07/13 11:23:43;;;;;;;31.75;28.77;;;;;;;;;;5036295;28;20698;-72
2021/07/13 11:26:10;;;;;;;33.78;30.58;;;;;;;;;;5037726;28;20473;-72
2021/07/13 11:28:37;;;;;;;31.00;28.10;;;;;;;;;;5035149;28;20075;-72
2021/07/13 11:31:05;;;;;;;32.58;29.58;;;;;;;;;;5039337;28;20358;-72
2021/07/13 11:33:32;;;;;;;30.23;27.55;;;;;;;;;;5030544;28;20036;-72
2021/07/13 11:36:03;;;;;;;28.98;26.35;;;;;;;;;;5035781;28;20041;-73
2021/07/13 11:38:35;;;;;;;30.48;27.48;;;;;;;;;;5040894;28;20033;-72
2021/07/13 11:41:09;;;;;;;29.65;26.90;;;;;;;;;;5039994;28;20156;-72
2021/07/13 11:43:35;;;;;;;27.42;24.92;;;;;;;;;;5040023;28;20095;-72
2021/07/13 11:46:11;;;;;;;27.08;24.55;;;;;;;;;;5035489;28;20121;-72
2021/07/13 11:48:38;;;;;;;27.75;25.27;;;;;;;;;;5034076;28;20412;-72
2021/07/13 11:51:04;;;;;;;27.48;24.90;;;;;;;;;;5039464;28;20033;-72
2021/07/13 11:53:31;;;;;;;27.63;25.02;;;;;;;;;;5016338;28;20075;-72
2021/07/13 11:56:02;;;;;;;27.88;25.35;;;;;;;;;;5036098;28;20067;-72
2021/07/13 11:58:32;;;;;;;26.92;24.38;;;;;;;;;;5032173;28;20037;-72
2021/07/13 12:01:18;;;;;;;27.05;24.52;;;;;;;;;;5039239;28;20454;-72
2021/07/13 12:03:45;;;;;;;25.38;23.15;;;;;;;;;;5035426;28;20049;-72
2021/07/13 12:06:12;;;;;;;25.70;23.60;;;;;;;;;;5039743;28;20500;-72
2021/07/13 12:08:39;;;;;;;26.25;23.85;;;;;;;;;;5031238;28;20094;-72
2021/07/13 12:11:06;;;;;;;26.23;23.73;;;;;;;;;;5036918;28;20444;-72
2021/07/13 12:13:32;;;;;;;26.83;24.45;;;;;;;;;;5029393;28;20413;-72
2021/07/13 12:16:18;;;;;;;27.70;25.30;;;;;;;;;;5036954;28;20041;-72
2021/07/13 12:18:44;;;;;;;25.88;23.58;;;;;;;;;;5032489;28;20435;-72
2021/07/13 12:21:13;;;;;;;25.70;23.40;;;;;;;;;;5039424;28;20128;-72
2021/07/13 12:23:43;;;;;;;26.35;24.05;;;;;;;;;;5029896;28;20118;-72
2021/07/13 12:26:21;;;;;;;25.33;23.02;;;;;;;;;;5034781;28;20047;-71
2021/07/13 12:29:06;;;;;;;24.95;22.77;;;;;;;;;;5035574;28;20624;-71
2021/07/13 12:31:33;;;;;;;27.30;24.77;;;;;;;;;;5040599;28;20154;-71
2021/07/13 12:33:59;;;;;;;24.60;22.40;;;;;;;;;;5039782;28;20057;-71
2021/07/13 12:36:29;;;;;;;24.35;22.17;;;;;;;;;;5036718;28;20041;-70
2021/07/13 12:38:56;;;;;;;25.80;23.40;;;;;;;;;;5036115;28;20163;-70
2021/07/13 12:41:26;;;;;;;27.58;25.00;;;;;;;;;;5017497;28;20041;-71
2021/07/13 12:43:52;;;;;;;24.08;21.98;;;;;;;;;;5042168;28;20056;-71
2021/07/13 12:46:44;;;;;;;23.63;21.45;;;;;;;;;;5028407;28;20045;-71
2021/07/13 12:49:10;;;;;;;24.38;22.10;;;;;;;;;;5034706;28;20576;-71
2021/07/13 12:51:37;;;;;;;20.58;18.67;;;;;;;;;;5013891;28;20048;-72
2021/07/13 12:54:04;;;;;;;22.77;20.67;;;;;;;;;;5036182;28;20065;-72
2021/07/13 12:56:31;;;;;;;21.65;19.60;;;;;;;;;;5029224;28;20045;-72
2021/07/13 12:59:07;;;;;;;22.63;20.52;;;;;;;;;;5037947;28;20029;-72
2021/07/13 13:01:34;;;;;;;23.08;20.88;;;;;;;;;;5031547;28;20037;-72
2021/07/13 13:04:11;;;;;;;22.13;20.20;;;;;;;;;;5042889;28;20205;-72
2021/07/13 13:06:37;;;;;;;21.25;19.25;;;;;;;;;;5005005;28;20046;-72
2021/07/13 13:09:10;;;;;;;21.75;19.77;;;;;;;;;;5022607;28;20133;-72
2021/07/13 13:11:37;;;;;;;21.33;19.17;;;;;;;;;;5011600;28;20041;-72
2021/07/13 13:14:09;;;;;;;22.15;19.92;;;;;;;;;;5014883;28;20409;-72
2021/07/13 13:16:37;;;;;;;22.92;20.83;;;;;;;;;;5010700;28;20038;-72
2021/07/13 13:19:04;;;;;;;22.10;20.00;;;;;;;;;;5022441;28;20212;-72
2021/07/13 13:21:30;;;;;;;21.95;19.98;;;;;;;;;;5016222;28;20211;-72
2021/07/13 13:23:57;;;;;;;21.75;19.52;;;;;;;;;;5013548;28;20034;-72
2021/07/13 13:26:24;;;;;;;21.58;19.33;;;;;;;;;;5014082;28;20029;-72
2021/07/13 13:28:51;;;;;;;19.25;17.35;;;;;;;;;;5014187;28;20073;-72
2021/07/13 13:31:17;;;;;;;20.50;17.98;;;;;;;;;;5010331;28;20038;-73
2021/07/13 13:33:44;;;;;;;20.75;18.70;;;;;;;;;;5013291;28;20434;-72
2021/07/13 13:36:21;;;;;;;19.65;17.65;;;;;;;;;;5023296;28;20411;-72
2021/07/13 13:38:56;;;;;;;20.08;18.23;;;;;;;;;;5016383;28;20072;-72
2021/07/13 13:41:23;;;;;;;20.63;18.52;;;;;;;;;;5014087;28;20487;-72
2021/07/13 13:43:49;;;;;;;19.92;18.02;;;;;;;;;;5008323;28;20405;-72
2021/07/13 13:46:15;;;;;;;20.20;18.20;;;;;;;;;;5022282;28;20046;-72
2021/07/13 13:48:41;;;;;;;18.05;16.30;;;;;;;;;;5013997;28;20046;-72
2021/07/13 13:51:08;;;;;;;19.08;17.27;;;;;;;;;;5020191;28;20030;-72
2021/07/13 13:53:37;;;;;;;17.98;16.23;;;;;;;;;;5010452;28;20108;-72
2021/07/13 13:56:04;;;;;;;19.50;17.65;;;;;;;;;;5015377;28;20596;-72
2021/07/13 13:58:30;;;;;;;21.10;18.90;;;;;;;;;;5010150;28;20429;-72
2021/07/13 14:00:56;;;;;;;21.02;18.85;;;;;;;;;;5012735;28;20030;-72
2021/07/13 14:03:23;;;;;;;19.80;17.90;;;;;;;;;;5016425;28;20033;-72
2021/07/13 14:05:49;;;;;;;20.13;18.23;;;;;;;;;;5019397;28;20057;-72
2021/07/13 14:08:17;;;;;;;20.10;18.23;;;;;;;;;;5034062;28;20083;-72
2021/07/13 14:10:43;;;;;;;20.75;18.85;;;;;;;;;;5034076;28;20509;-72
2021/07/13 14:13:09;;;;;;;21.08;18.85;;;;;;;;;;5035574;28;20132;-72
2021/07/13 14:15:35;;;;;;;21.98;19.90;;;;;;;;;;5038878;28;20034;-72
2021/07/13 14:18:02;;;;;;;20.50;18.58;;;;;;;;;;5035317;28;20044;-72
2021/07/13 14:20:28;;;;;;;21.30;19.30;;;;;;;;;;5036624;28;20045;-72